Time;durP1;ratioP1;P1;durP2;ratioP2;P2;SDS_P1;SDS_P2;PMS_P1;PMS_P2;Temp;Humidity;BMP_temperature;BMP_pressure;BME280_temperature;BME280_humidity;BME280_pressure;Samples;Min_cycle;Max_cycle;Signal;HPM_P1;HPM_P2
2023/01/16 00:00:25;;;;;;;1.38;1.20;;;;;;;;;;5075720;28;20074;-21
2023/01/16 00:02:51;;;;;;;1.52;0.95;;;;;;;;;;5074960;28;20085;-23
2023/01/16 00:05:17;;;;;;;1.67;1.02;;;;;;;;;;5074527;28;20048;-22
2023/01/16 00:07:43;;;;;;;1.13;0.80;;;;;;;;;;5074994;28;20024;-21
2023/01/16 00:10:10;;;;;;;0.85;0.85;;;;;;;;;;5074757;28;20024;-21
2023/01/16 00:12:36;;;;;;;1.80;1.40;;;;;;;;;;5074734;28;20044;-21
2023/01/16 00:15:02;;;;;;;0.77;0.73;;;;;;;;;;5074944;28;20372;-22
2023/01/16 00:17:29;;;;;;;0.85;0.80;;;;;;;;;;5074972;28;20376;-21
2023/01/16 00:19:55;;;;;;;1.33;0.80;;;;;;;;;;5074712;28;20036;-21
2023/01/16 00:22:21;;;;;;;1.52;0.95;;;;;;;;;;5075027;28;20032;-21
2023/01/16 00:24:47;;;;;;;1.30;0.90;;;;;;;;;;5074394;28;20036;-22
2023/01/16 00:27:13;;;;;;;1.20;0.73;;;;;;;;;;5074822;28;20413;-21
2023/01/16 00:29:40;;;;;;;0.70;0.70;;;;;;;;;;5074576;28;20032;-22
2023/01/16 00:32:06;;;;;;;1.55;1.23;;;;;;;;;;5074424;28;20025;-31
2023/01/16 00:34:32;;;;;;;1.20;0.65;;;;;;;;;;5074511;28;20052;-21
2023/01/16 00:36:58;;;;;;;1.17;0.95;;;;;;;;;;5074445;28;20028;-21
2023/01/16 00:39:24;;;;;;;0.80;0.80;;;;;;;;;;5074531;28;20333;-21
2023/01/16 00:41:50;;;;;;;0.90;0.70;;;;;;;;;;5074366;28;20105;-21
2023/01/16 00:44:17;;;;;;;0.90;0.90;;;;;;;;;;5074685;28;20495;-22
2023/01/16 00:46:43;;;;;;;1.63;1.20;;;;;;;;;;5074312;28;20471;-22
2023/01/16 00:49:09;;;;;;;0.70;0.70;;;;;;;;;;5074444;28;20166;-21
2023/01/16 00:51:35;;;;;;;1.40;0.88;;;;;;;;;;5074275;28;20024;-21
2023/01/16 00:54:01;;;;;;;1.13;0.82;;;;;;;;;;5074506;28;20021;-21
2023/01/16 00:56:27;;;;;;;0.77;0.68;;;;;;;;;;5074215;28;20036;-22
2023/01/16 00:58:54;;;;;;;1.35;0.90;;;;;;;;;;5074491;28;20047;-21
2023/01/16 01:01:20;;;;;;;1.80;1.20;;;;;;;;;;5074837;28;20032;-22
2023/01/16 01:03:46;;;;;;;1.20;0.90;;;;;;;;;;5074226;28;20033;-21
2023/01/16 01:06:12;;;;;;;1.58;0.88;;;;;;;;;;5073974;28;20136;-21
2023/01/16 01:08:39;;;;;;;1.15;0.90;;;;;;;;;;5074214;28;20016;-21
2023/01/16 01:11:09;;;;;;;1.38;1.05;;;;;;;;;;5056415;28;20349;-21
2023/01/16 01:13:35;;;;;;;1.55;0.90;;;;;;;;;;5056615;28;20086;-21
2023/01/16 01:16:02;;;;;;;1.15;0.90;;;;;;;;;;5074073;28;20025;-21
2023/01/16 01:18:28;;;;;;;1.38;1.27;;;;;;;;;;5074372;28;20043;-21
2023/01/16 01:20:54;;;;;;;1.27;0.95;;;;;;;;;;5074274;28;20056;-22
2023/01/16 01:23:20;;;;;;;1.75;0.98;;;;;;;;;;5074122;28;20044;-22
2023/01/16 01:25:46;;;;;;;1.08;0.88;;;;;;;;;;5073937;28;20028;-21
2023/01/16 01:28:13;;;;;;;1.77;0.80;;;;;;;;;;5074031;28;20082;-23
2023/01/16 01:30:39;;;;;;;2.35;0.95;;;;;;;;;;5074128;28;20048;-23
2023/01/16 01:33:05;;;;;;;1.20;1.00;;;;;;;;;;5074090;28;20028;-21
2023/01/16 01:35:32;;;;;;;1.25;0.90;;;;;;;;;;5074231;28;20047;-21
2023/01/16 01:37:58;;;;;;;2.13;1.02;;;;;;;;;;5074103;28;20113;-21
2023/01/16 01:40:24;;;;;;;1.35;0.90;;;;;;;;;;5073910;28;20459;-22
2023/01/16 01:42:53;;;;;;;2.45;0.95;;;;;;;;;;5074014;28;20021;-22
2023/01/16 01:45:20;;;;;;;2.25;0.80;;;;;;;;;;5073787;28;20032;-23
2023/01/16 01:47:59;;;;;;;1.08;0.80;;;;;;;;;;5074408;28;20020;-22
2023/01/16 01:50:25;;;;;;;1.65;1.35;;;;;;;;;;5074494;28;20016;-22
2023/01/16 01:52:52;;;;;;;1.10;0.98;;;;;;;;;;5077109;28;20087;-21
2023/01/16 01:55:21;;;;;;;1.00;0.90;;;;;;;;;;5077543;28;20032;-21
2023/01/16 01:57:52;;;;;;;2.17;1.10;;;;;;;;;;5077288;28;20103;-23
2023/01/16 02:00:19;;;;;;;2.05;1.10;;;;;;;;;;5077401;28;20367;-21
2023/01/16 02:02:49;;;;;;;1.27;1.10;;;;;;;;;;5077419;28;20410;-21
2023/01/16 02:05:20;;;;;;;1.15;0.80;;;;;;;;;;5076889;28;20053;-21
2023/01/16 02:07:46;;;;;;;1.38;0.80;;;;;;;;;;5077340;28;20103;-21
2023/01/16 02:10:22;;;;;;;1.38;0.80;;;;;;;;;;5077002;28;20422;-21
2023/01/16 02:12:48;;;;;;;2.13;1.13;;;;;;;;;;5077173;28;20363;-21
2023/01/16 02:15:15;;;;;;;1.55;1.10;;;;;;;;;;5076949;28;20021;-22
2023/01/16 02:20:31;;;;;;;1.15;0.80;;;;;;;;;;5076905;28;20115;-21
2023/01/16 02:23:03;;;;;;;1.40;1.17;;;;;;;;;;5077283;28;20028;-21
2023/01/16 02:25:30;;;;;;;1.17;0.90;;;;;;;;;;5076685;28;20116;-22
2023/01/16 02:28:14;;;;;;;1.65;1.20;;;;;;;;;;5076726;28;20028;-22
2023/01/16 02:30:59;;;;;;;1.63;0.85;;;;;;;;;;5076621;28;20024;-22
2023/01/16 02:33:34;;;;;;;1.42;0.90;;;;;;;;;;5076695;28;20410;-22
2023/01/16 02:36:06;;;;;;;0.95;0.80;;;;;;;;;;5076619;28;20043;-22
2023/01/16 02:38:42;;;;;;;1.30;0.93;;;;;;;;;;5076447;28;20107;-21
2023/01/16 02:41:41;;;;;;;1.42;1.08;;;;;;;;;;5058932;28;20090;-22
2023/01/16 02:44:10;;;;;;;1.20;1.10;;;;;;;;;;5061144;28;20111;-21
2023/01/16 02:46:46;;;;;;;1.40;0.90;;;;;;;;;;5076508;28;20028;-21
2023/01/16 02:49:15;;;;;;;0.75;0.75;;;;;;;;;;5076547;28;20082;-25
2023/01/16 02:51:56;;;;;;;1.92;0.95;;;;;;;;;;5077249;28;20025;-21
2023/01/16 02:54:23;;;;;;;0.93;0.77;;;;;;;;;;5076150;28;20020;-22
2023/01/16 02:56:57;;;;;;;1.02;0.93;;;;;;;;;;5076435;28;20384;-21
2023/01/16 02:59:24;;;;;;;2.22;1.33;;;;;;;;;;5076287;28;20051;-24
2023/01/16 03:01:50;;;;;;;0.98;0.90;;;;;;;;;;5075696;28;20028;-22
2023/01/16 03:04:40;;;;;;;2.40;1.13;;;;;;;;;;5075763;28;20052;-21
2023/01/16 03:07:17;;;;;;;0.98;0.73;;;;;;;;;;5065932;28;20067;-21
2023/01/16 03:10:19;;;;;;;0.88;0.70;;;;;;;;;;5075826;28;20032;-21
2023/01/16 03:12:48;;;;;;;1.48;1.02;;;;;;;;;;4994879;28;20031;-26
2023/01/16 03:15:22;;;;;;;1.40;1.00;;;;;;;;;;5061625;28;20033;-21
2023/01/16 03:18:07;;;;;;;0.88;0.70;;;;;;;;;;5076205;28;20032;-21
2023/01/16 03:20:48;;;;;;;1.15;0.75;;;;;;;;;;5075736;28;20104;-21
2023/01/16 03:23:14;;;;;;;1.77;0.90;;;;;;;;;;5075546;28;20375;-22
2023/01/16 03:26:01;;;;;;;0.90;0.68;;;;;;;;;;5075526;28;20104;-21
2023/01/16 03:28:43;;;;;;;0.93;0.65;;;;;;;;;;5075299;28;20036;-21
2023/01/16 03:31:18;;;;;;;1.10;0.80;;;;;;;;;;5075483;28;20024;-21
2023/01/16 03:33:58;;;;;;;0.77;0.73;;;;;;;;;;5075556;28;20024;-22
2023/01/16 03:36:36;;;;;;;0.88;0.82;;;;;;;;;;5075633;28;20116;-21
2023/01/16 03:39:05;;;;;;;1.00;0.80;;;;;;;;;;5075311;28;20514;-22
2023/01/16 03:41:33;;;;;;;0.95;0.80;;;;;;;;;;5075273;28;20028;-21
2023/01/16 03:44:05;;;;;;;0.90;0.80;;;;;;;;;;5075101;28;20169;-22
2023/01/16 03:46:33;;;;;;;0.75;0.75;;;;;;;;;;5075437;28;20035;-22
2023/01/16 03:48:59;;;;;;;0.98;0.93;;;;;;;;;;5075068;28;20025;-21
2023/01/16 03:51:27;;;;;;;2.00;1.33;;;;;;;;;;5075314;28;20403;-21
2023/01/16 03:54:12;;;;;;;1.05;0.85;;;;;;;;;;5074907;28;20101;-21
2023/01/16 03:56:50;;;;;;;0.80;0.80;;;;;;;;;;5074899;28;20363;-22
2023/01/16 03:59:17;;;;;;;1.35;0.80;;;;;;;;;;5075227;28;20052;-23
2023/01/16 04:02:09;;;;;;;0.90;0.80;;;;;;;;;;5058068;28;20119;-21
2023/01/16 04:04:40;;;;;;;0.80;0.80;;;;;;;;;;5070909;28;20428;-22
2023/01/16 04:07:06;;;;;;;1.80;0.90;;;;;;;;;;5075169;28;20047;-22
2023/01/16 04:09:45;;;;;;;1.25;0.88;;;;;;;;;;5074796;28;20052;-22
2023/01/16 04:12:14;;;;;;;1.23;0.95;;;;;;;;;;5075022;28;20032;-22
2023/01/16 04:14:42;;;;;;;0.80;0.80;;;;;;;;;;5056456;28;20028;-21
2023/01/16 04:17:08;;;;;;;1.05;0.75;;;;;;;;;;5074897;28;20454;-22
2023/01/16 04:19:36;;;;;;;0.93;0.70;;;;;;;;;;5074945;28;20024;-21
2023/01/16 04:22:06;;;;;;;0.95;0.82;;;;;;;;;;5074754;28;20040;-21
2023/01/16 04:24:32;;;;;;;0.93;0.85;;;;;;;;;;5057849;28;20064;-21
2023/01/16 04:26:58;;;;;;;0.75;0.75;;;;;;;;;;5074526;28;20028;-22
2023/01/16 04:29:25;;;;;;;0.80;0.80;;;;;;;;;;5075153;28;20111;-21
2023/01/16 04:31:52;;;;;;;2.15;0.80;;;;;;;;;;5074784;28;20356;-21
2023/01/16 04:34:18;;;;;;;1.13;1.02;;;;;;;;;;5074846;28;20420;-21
2023/01/16 04:36:44;;;;;;;1.00;0.90;;;;;;;;;;5074426;28;20029;-21
2023/01/16 04:39:10;;;;;;;1.00;0.80;;;;;;;;;;5074421;28;20021;-22
2023/01/16 04:41:36;;;;;;;0.85;0.70;;;;;;;;;;5074423;28;20085;-21
2023/01/16 04:44:03;;;;;;;0.95;0.95;;;;;;;;;;5074298;28;20064;-22
2023/01/16 04:46:29;;;;;;;0.70;0.70;;;;;;;;;;5074532;28;20036;-22
2023/01/16 04:48:55;;;;;;;0.90;0.68;;;;;;;;;;5074325;28;20078;-21
2023/01/16 04:51:22;;;;;;;0.88;0.88;;;;;;;;;;5074249;28;20020;-21
2023/01/16 04:53:48;;;;;;;0.63;0.63;;;;;;;;;;5074169;28;20024;-21
2023/01/16 04:56:14;;;;;;;0.82;0.80;;;;;;;;;;5074222;28;20057;-22
2023/01/16 04:58:40;;;;;;;1.02;0.73;;;;;;;;;;5074169;28;20455;-21
2023/01/16 05:01:06;;;;;;;0.80;0.80;;;;;;;;;;5074434;28;20071;-21
2023/01/16 05:03:32;;;;;;;0.80;0.80;;;;;;;;;;5056355;28;20052;-22
2023/01/16 05:05:59;;;;;;;0.88;0.75;;;;;;;;;;5073899;28;20361;-22
2023/01/16 05:08:27;;;;;;;1.45;0.80;;;;;;;;;;5074039;28;20024;-21
2023/01/16 05:10:54;;;;;;;0.70;0.70;;;;;;;;;;5074279;28;20025;-23
2023/01/16 05:13:21;;;;;;;1.88;1.00;;;;;;;;;;5074300;28;20416;-23
2023/01/16 05:15:47;;;;;;;2.13;1.02;;;;;;;;;;5073847;28;20107;-22
2023/01/16 05:18:13;;;;;;;3.08;1.02;;;;;;;;;;5073778;28;20457;-22
2023/01/16 05:20:40;;;;;;;0.80;0.80;;;;;;;;;;5073882;28;20040;-23
2023/01/16 05:23:09;;;;;;;1.85;0.70;;;;;;;;;;5073701;28;20323;-21
2023/01/16 05:25:35;;;;;;;1.42;0.68;;;;;;;;;;5075338;28;20359;-22
2023/01/16 05:28:01;;;;;;;9.57;0.85;;;;;;;;;;5077227;28;20021;-22
2023/01/16 05:30:27;;;;;;;3.35;0.82;;;;;;;;;;5077210;28;20033;-22
2023/01/16 05:32:53;;;;;;;3.67;0.90;;;;;;;;;;5077162;28;20345;-22
2023/01/16 05:35:19;;;;;;;6.30;1.08;;;;;;;;;;5059416;28;20456;-21
2023/01/16 05:37:46;;;;;;;6.50;1.17;;;;;;;;;;5077284;28;20108;-22
2023/01/16 05:40:12;;;;;;;7.47;1.20;;;;;;;;;;5076915;28;20495;-23
2023/01/16 05:42:39;;;;;;;6.15;1.33;;;;;;;;;;5077309;28;20029;-21
2023/01/16 05:45:05;;;;;;;5.72;1.20;;;;;;;;;;5076949;28;20120;-22
2023/01/16 05:47:31;;;;;;;3.08;1.00;;;;;;;;;;5077110;28;20115;-22
2023/01/16 05:49:58;;;;;;;0.85;0.80;;;;;;;;;;5077186;28;20021;-22
2023/01/16 05:52:26;;;;;;;6.13;0.90;;;;;;;;;;5076843;28;20096;-22
2023/01/16 05:54:53;;;;;;;0.90;0.70;;;;;;;;;;5076904;28;20041;-22
2023/01/16 05:57:20;;;;;;;5.78;1.20;;;;;;;;;;5077460;28;20036;-22
2023/01/16 05:59:49;;;;;;;1.48;1.02;;;;;;;;;;5059193;28;20052;-21
2023/01/16 06:02:16;;;;;;;5.35;1.20;;;;;;;;;;5557266;22;20049;-29
2023/01/16 06:04:42;;;;;;;4.72;1.45;;;;;;;;;;5059017;28;20116;-29
2023/01/16 06:07:08;;;;;;;5.35;1.23;;;;;;;;;;5076717;28;20332;-29
2023/01/16 06:09:34;;;;;;;4.28;1.08;;;;;;;;;;5076931;28;20379;-30
2023/01/16 06:12:01;;;;;;;10.77;1.00;;;;;;;;;;5059133;28;20029;-29
2023/01/16 06:14:27;;;;;;;7.18;1.10;;;;;;;;;;5076512;28;20021;-29
2023/01/16 06:16:53;;;;;;;5.28;1.20;;;;;;;;;;5076619;28;20454;-29
2023/01/16 06:19:19;;;;;;;4.95;1.02;;;;;;;;;;5076169;28;20463;-29
2023/01/16 06:21:45;;;;;;;10.68;1.88;;;;;;;;;;5076145;28;20102;-29
2023/01/16 06:24:11;;;;;;;6.72;1.20;;;;;;;;;;5076258;28;20115;-29
2023/01/16 06:26:37;;;;;;;14.80;2.00;;;;;;;;;;5076036;28;20024;-30
2023/01/16 06:29:04;;;;;;;13.23;2.42;;;;;;;;;;5076121;28;20048;-29
2023/01/16 06:31:30;;;;;;;10.65;1.70;;;;;;;;;;5076054;28;20112;-29
2023/01/16 06:33:56;;;;;;;9.25;1.42;;;;;;;;;;5075913;28;20043;-30
2023/01/16 06:36:23;;;;;;;13.05;1.65;;;;;;;;;;5075827;28;20031;-30
2023/01/16 06:38:49;;;;;;;6.38;1.35;;;;;;;;;;5076046;28;20031;-29
2023/01/16 06:41:15;;;;;;;7.63;1.75;;;;;;;;;;5058266;28;20028;-29
2023/01/16 06:43:41;;;;;;;13.95;1.55;;;;;;;;;;5075454;28;20028;-30
2023/01/16 06:46:07;;;;;;;11.93;1.60;;;;;;;;;;5075963;28;20039;-30
2023/01/16 06:48:34;;;;;;;6.72;1.58;;;;;;;;;;5075900;28;20021;-29
2023/01/16 06:51:00;;;;;;;10.55;1.23;;;;;;;;;;5075589;28;20396;-29
2023/01/16 06:53:27;;;;;;;7.57;1.83;;;;;;;;;;5075272;28;20025;-29
2023/01/16 06:55:53;;;;;;;4.97;1.60;;;;;;;;;;5057741;28;20106;-29
2023/01/16 06:58:20;;;;;;;4.55;1.88;;;;;;;;;;5075301;28;20056;-29
2023/01/16 07:00:50;;;;;;;6.47;1.05;;;;;;;;;;5075096;28;20025;-30
2023/01/16 07:03:17;;;;;;;4.70;2.38;;;;;;;;;;5075042;28;20048;-29
2023/01/16 07:05:44;;;;;;;8.55;1.30;;;;;;;;;;5075298;28;20144;-29
2023/01/16 07:08:10;;;;;;;9.23;1.35;;;;;;;;;;5075145;28;20048;-29
2023/01/16 07:10:36;;;;;;;10.80;1.17;;;;;;;;;;5075002;28;20020;-29
2023/01/16 07:13:03;;;;;;;6.90;1.30;;;;;;;;;;5075133;28;20090;-29
2023/01/16 07:23:48;;;;;;;10.35;1.52;;;;;;;;;;5075422;28;20052;-29
2023/01/16 07:26:18;;;;;;;22.45;2.05;;;;;;;;;;5075066;28;20025;-29
2023/01/16 07:28:45;;;;;;;6.43;2.13;;;;;;;;;;5075202;28;20024;-29
2023/01/16 07:31:11;;;;;;;12.07;1.75;;;;;;;;;;5074749;28;20103;-29
2023/01/16 07:33:37;;;;;;;6.45;1.83;;;;;;;;;;5074981;28;20024;-29
2023/01/16 07:36:03;;;;;;;5.30;1.20;;;;;;;;;;5075054;28;20028;-29
2023/01/16 07:38:30;;;;;;;4.10;1.25;;;;;;;;;;5074532;28;20025;-29
2023/01/16 07:40:56;;;;;;;14.88;1.80;;;;;;;;;;5074946;28;20340;-29
2023/01/16 07:43:23;;;;;;;5.25;1.88;;;;;;;;;;5074568;28;20024;-29
2023/01/16 07:45:52;;;;;;;4.93;1.17;;;;;;;;;;5074731;28;20029;-30
2023/01/16 07:48:19;;;;;;;10.50;2.47;;;;;;;;;;5073688;28;20024;-30
2023/01/16 07:50:49;;;;;;;7.15;1.48;;;;;;;;;;5074049;28;20032;-29
2023/01/16 07:53:15;;;;;;;6.77;1.60;;;;;;;;;;5074435;28;20036;-28
2023/01/16 07:55:42;;;;;;;2.88;1.08;;;;;;;;;;5074307;28;20032;-28
2023/01/16 07:58:08;;;;;;;3.38;1.15;;;;;;;;;;5074274;28;20039;-28
2023/01/16 08:00:34;;;;;;;9.68;1.80;;;;;;;;;;5074044;28;20028;-28
2023/01/16 08:03:00;;;;;;;7.03;1.30;;;;;;;;;;5074082;28;20166;-28
2023/01/16 08:05:27;;;;;;;10.00;1.48;;;;;;;;;;5073960;28;20423;-29
2023/01/16 08:07:53;;;;;;;5.95;1.95;;;;;;;;;;5074423;28;20107;-28
2023/01/16 08:10:19;;;;;;;4.45;1.05;;;;;;;;;;5074350;28;20468;-28
2023/01/16 08:12:46;;;;;;;10.05;1.63;;;;;;;;;;5056759;28;20060;-28
2023/01/16 08:15:12;;;;;;;12.70;3.00;;;;;;;;;;5074351;28;20024;-28
2023/01/16 08:17:40;;;;;;;10.65;1.85;;;;;;;;;;5074246;28;20086;-29
2023/01/16 08:20:06;;;;;;;17.60;2.80;;;;;;;;;;5073785;28;20082;-28
2023/01/16 08:22:32;;;;;;;10.55;2.08;;;;;;;;;;5073925;28;20418;-28
2023/01/16 08:24:58;;;;;;;9.68;3.13;;;;;;;;;;5073996;28;20528;-28
2023/01/16 08:27:25;;;;;;;6.30;1.60;;;;;;;;;;5073814;28;20550;-28
2023/01/16 08:29:51;;;;;;;5.82;1.55;;;;;;;;;;5055924;28;20389;-29
2023/01/16 08:32:17;;;;;;;13.77;3.50;;;;;;;;;;5073855;28;20362;-29
2023/01/16 08:34:43;;;;;;;16.85;2.47;;;;;;;;;;5073436;28;20024;-29
2023/01/16 08:37:10;;;;;;;7.82;1.45;;;;;;;;;;5073773;28;20115;-29
2023/01/16 08:39:37;;;;;;;20.88;3.33;;;;;;;;;;5073290;28;20454;-29
2023/01/16 08:53:05;;;;;;;15.35;3.67;;;;;;;;;;5073660;28;20051;-29
2023/01/16 08:55:31;;;;;;;9.20;2.08;;;;;;;;;;5073613;28;20035;-28
2023/01/16 08:57:58;;;;;;;14.80;2.30;;;;;;;;;;5073706;28;20030;-28
2023/01/16 09:00:26;;;;;;;9.27;1.63;;;;;;;;;;5074687;28;20032;-28
2023/01/16 09:02:53;;;;;;;18.30;2.60;;;;;;;;;;5076812;28;20408;-29
2023/01/16 09:05:19;;;;;;;9.63;1.83;;;;;;;;;;5077142;28;20116;-29
2023/01/16 09:07:45;;;;;;;12.43;1.90;;;;;;;;;;5077646;28;20137;-28
2023/01/16 09:10:12;;;;;;;16.88;2.22;;;;;;;;;;5059788;28;20363;-28
2023/01/16 09:15:24;;;;;;;11.70;2.30;;;;;;;;;;5077733;28;20097;-29
2023/01/16 09:17:50;;;;;;;17.75;2.53;;;;;;;;;;5077533;28;20446;-28
2023/01/16 09:20:16;;;;;;;4.72;1.83;;;;;;;;;;5059603;28;20028;-29
2023/01/16 09:22:43;;;;;;;6.93;1.85;;;;;;;;;;5077398;28;20021;-29
2023/01/16 09:25:09;;;;;;;11.93;1.70;;;;;;;;;;5076970;28;20093;-29
2023/01/16 09:27:35;;;;;;;16.92;1.67;;;;;;;;;;5077022;28;20029;-30
2023/01/16 09:30:02;;;;;;;6.75;2.08;;;;;;;;;;5077370;28;20552;-28
2023/01/16 09:32:28;;;;;;;7.90;2.28;;;;;;;;;;5076926;28;20130;-29
2023/01/16 09:34:54;;;;;;;14.32;2.25;;;;;;;;;;5077242;28;20083;-29
2023/01/16 09:37:21;;;;;;;14.15;2.25;;;;;;;;;;5076989;28;20111;-29
2023/01/16 09:39:47;;;;;;;9.05;1.40;;;;;;;;;;5076744;28;20044;-29
2023/01/16 09:45:01;;;;;;;13.82;1.88;;;;;;;;;;5076731;28;20098;-29
2023/01/16 09:47:29;;;;;;;11.23;1.30;;;;;;;;;;5059014;28;20541;-29
2023/01/16 09:50:04;;;;;;;10.75;1.83;;;;;;;;;;5076724;28;20021;-30
2023/01/16 10:00:57;;;;;;;9.85;1.88;;;;;;;;;;5077111;28;20043;-29
2023/01/16 10:03:23;;;;;;;17.58;1.90;;;;;;;;;;5076151;28;20131;-28
2023/01/16 10:05:55;;;;;;;11.38;1.90;;;;;;;;;;5076398;28;20112;-28
2023/01/16 10:08:21;;;;;;;;;;;;;;;;;;5076715;28;20028;-28
2023/01/16 10:11:04;;;;;;;25.58;2.40;;;;;;;;;;5076587;28;19926;-28
2023/01/16 10:13:30;;;;;;;23.73;2.17;;;;;;;;;;5075579;28;20029;-29
2023/01/16 10:16:12;;;;;;;12.68;2.20;;;;;;;;;;5076367;28;20432;-28
2023/01/16 10:18:44;;;;;;;14.32;2.65;;;;;;;;;;5075845;28;20036;-28
2023/01/16 10:21:29;;;;;;;14.43;2.38;;;;;;;;;;5058125;28;20479;-30
2023/01/16 10:23:58;;;;;;;14.68;2.25;;;;;;;;;;5076137;28;20032;-28
2023/01/16 10:26:28;;;;;;;19.13;2.40;;;;;;;;;;5058210;28;20048;-29
2023/01/16 10:28:54;;;;;;;9.60;1.95;;;;;;;;;;5076390;28;20289;-28
2023/01/16 10:31:32;;;;;;;13.90;2.65;;;;;;;;;;5076100;28;20155;-28
2023/01/16 10:34:25;;;;;;;19.80;2.13;;;;;;;;;;5076010;28;20039;-29
2023/01/16 10:36:52;;;;;;;5.72;2.25;;;;;;;;;;5045613;28;20040;-28
2023/01/16 10:39:20;;;;;;;11.38;2.20;;;;;;;;;;5075664;28;20022;-29
2023/01/16 10:50:15;;;;;;;12.02;2.05;;;;;;;;;;5067316;28;20077;-29
2023/01/16 10:52:41;;;;;;;14.73;2.10;;;;;;;;;;5095850;28;20107;-29
2023/01/16 10:55:08;;;;;;;14.88;2.30;;;;;;;;;;5096116;28;20040;-29
2023/01/16 10:57:35;;;;;;;21.23;2.35;;;;;;;;;;5095686;28;20107;-29
2023/01/16 11:00:03;;;;;;;18.55;2.55;;;;;;;;;;5095939;28;20035;-29
2023/01/16 11:02:32;;;;;;;5.93;2.28;;;;;;;;;;5092363;28;20127;-29
2023/01/16 11:04:58;;;;;;;18.08;2.35;;;;;;;;;;5076074;28;20103;-29
2023/01/16 11:07:27;;;;;;;18.60;1.98;;;;;;;;;;5075483;28;20074;-29
2023/01/16 11:09:53;;;;;;;14.93;2.55;;;;;;;;;;5075937;28;20020;-29
2023/01/16 11:20:45;;;;;;;6.65;1.60;;;;;;;;;;5075698;28;20047;-28
2023/01/16 11:23:17;;;;;;;25.80;2.40;;;;;;;;;;5075251;28;20082;-29
2023/01/16 11:25:44;;;;;;;7.50;1.58;;;;;;;;;;5075260;28;20359;-29
2023/01/16 11:28:23;;;;;;;7.05;1.73;;;;;;;;;;5074900;28;20041;-29
2023/01/16 11:30:52;;;;;;;11.80;1.88;;;;;;;;;;5075376;28;20032;-29
2023/01/16 11:33:23;;;;;;;17.70;2.60;;;;;;;;;;5075144;28;20043;-29
2023/01/16 11:36:08;;;;;;;8.43;2.22;;;;;;;;;;5075046;28;20087;-29
2023/01/16 11:38:37;;;;;;;11.23;2.05;;;;;;;;;;5074897;28;20098;-29
2023/01/16 11:41:06;;;;;;;15.40;3.50;;;;;;;;;;5075193;28;20103;-28
2023/01/16 11:46:23;;;;;;;15.38;2.33;;;;;;;;;;5060320;28;20048;-29
2023/01/16 11:48:53;;;;;;;11.30;2.03;;;;;;;;;;5074754;28;20039;-29
2023/01/16 11:51:23;;;;;;;11.40;2.72;;;;;;;;;;5075090;28;20057;-29
2023/01/16 11:53:49;;;;;;;8.40;1.90;;;;;;;;;;5074858;28;20032;-29
2023/01/16 11:56:22;;;;;;;12.10;2.92;;;;;;;;;;5074810;28;20033;-29
2023/01/16 11:58:48;;;;;;;15.02;2.30;;;;;;;;;;5074659;28;20075;-29
2023/01/16 12:01:16;;;;;;;11.73;2.28;;;;;;;;;;5074814;28;20115;-30
2023/01/16 12:03:48;;;;;;;13.98;4.47;;;;;;;;;;5074343;28;20040;-29
2023/01/16 12:06:14;;;;;;;;;;;;;;;;;;5040966;28;20036;-29
2023/01/16 12:08:52;;;;;;;11.85;2.05;;;;;;;;;;5074992;28;19908;-29
2023/01/16 12:11:36;;;;;;;8.27;3.38;;;;;;;;;;5057181;28;20032;-29
2023/01/16 12:14:20;;;;;;;12.15;2.38;;;;;;;;;;5074603;28;20056;-29
2023/01/16 12:16:59;;;;;;;23.83;3.58;;;;;;;;;;5056974;28;20106;-29
2023/01/16 12:19:28;;;;;;;15.60;4.40;;;;;;;;;;5074413;28;20040;-29
2023/01/16 12:22:06;;;;;;;33.83;3.80;;;;;;;;;;5056646;28;20425;-29
2023/01/16 12:24:53;;;;;;;22.65;5.53;;;;;;;;;;5074383;28;20028;-29
2023/01/16 12:27:34;;;;;;;14.23;2.28;;;;;;;;;;5061195;28;20116;-29
2023/01/16 12:30:00;;;;;;;19.73;3.30;;;;;;;;;;5074114;28;20017;-29
2023/01/16 12:32:33;;;;;;;22.55;2.80;;;;;;;;;;5056983;28;20038;-29
2023/01/16 12:35:14;;;;;;;34.13;3.03;;;;;;;;;;5073940;28;20039;-29
2023/01/16 12:37:40;;;;;;;;;;;;;;;;;;5057005;28;20040;-29
2023/01/16 12:40:27;;;;;;;14.63;2.83;;;;;;;;;;5074299;28;19904;-29
2023/01/16 12:45:47;;;;;;;16.25;2.47;;;;;;;;;;5074381;28;20040;-29
2023/01/16 12:48:19;;;;;;;8.25;1.80;;;;;;;;;;5074161;28;20355;-29
2023/01/16 12:50:55;;;;;;;25.88;3.15;;;;;;;;;;5074437;28;20455;-29
2023/01/16 12:53:40;;;;;;;8.32;2.20;;;;;;;;;;5074078;28;20040;-29
2023/01/16 12:56:21;;;;;;;16.63;2.22;;;;;;;;;;5074005;28;20033;-29
2023/01/16 12:58:47;;;;;;;;;;;;;;;;;;5074511;28;20367;-29
2023/01/16 13:01:15;;;;;;;11.45;2.05;;;;;;;;;;5074174;28;20003;-29
2023/01/16 13:04:01;;;;;;;14.40;1.95;;;;;;;;;;5087120;28;20425;-29
2023/01/16 13:06:47;;;;;;;16.25;2.30;;;;;;;;;;5093868;28;20036;-29
2023/01/16 13:09:22;;;;;;;13.77;2.38;;;;;;;;;;5093951;28;20034;-29
2023/01/16 13:14:44;;;;;;;14.10;2.15;;;;;;;;;;5094197;28;20038;-29
2023/01/16 13:17:13;;;;;;;8.45;2.08;;;;;;;;;;5094629;28;20085;-29
2023/01/16 13:19:40;;;;;;;29.50;3.38;;;;;;;;;;5093881;28;20038;-29
2023/01/16 13:22:10;;;;;;;11.15;1.98;;;;;;;;;;5093836;28;20465;-29
2023/01/16 13:24:44;;;;;;;14.65;2.50;;;;;;;;;;5093946;28;20435;-29
2023/01/16 13:27:14;;;;;;;16.42;2.17;;;;;;;;;;5093757;28;20119;-29
2023/01/16 13:29:45;;;;;;;12.98;2.67;;;;;;;;;;5094149;28;20020;-29
2023/01/16 13:32:20;;;;;;;22.48;3.33;;;;;;;;;;5094001;28;20413;-29
2023/01/16 13:34:48;;;;;;;17.25;2.40;;;;;;;;;;5093578;28;20119;-28
2023/01/16 13:37:27;;;;;;;10.32;2.50;;;;;;;;;;5094028;28;20040;-29
2023/01/16 13:39:59;;;;;;;10.02;2.72;;;;;;;;;;5093994;28;20032;-28
2023/01/16 13:42:26;;;;;;;20.52;2.72;;;;;;;;;;5093705;28;20036;-29
2023/01/16 13:47:43;;;;;;;14.57;2.75;;;;;;;;;;5097054;28;20136;-29
2023/01/16 13:50:24;;;;;;;18.80;3.75;;;;;;;;;;5097667;28;20028;-28
2023/01/16 13:52:50;;;;;;;12.05;2.38;;;;;;;;;;5097445;28;20175;-29
2023/01/16 13:55:23;;;;;;;12.00;2.30;;;;;;;;;;5097487;28;20486;-29
2023/01/16 13:57:49;;;;;;;19.23;2.95;;;;;;;;;;5097359;28;20078;-29
2023/01/16 14:00:18;;;;;;;32.63;3.28;;;;;;;;;;5079250;28;20032;-29
2023/01/16 14:02:45;;;;;;;18.33;2.15;;;;;;;;;;5096964;28;20044;-28
2023/01/16 14:05:23;;;;;;;25.95;2.90;;;;;;;;;;5097535;28;20024;-29
2023/01/16 14:10:47;;;;;;;17.02;2.08;;;;;;;;;;5058578;28;20056;-28
2023/01/16 14:13:23;;;;;;;18.17;2.05;;;;;;;;;;5079278;28;20469;-29
2023/01/16 14:18:47;;;;;;;23.63;2.45;;;;;;;;;;5097168;28;20039;-28
2023/01/16 14:21:32;;;;;;;17.75;3.00;;;;;;;;;;5096982;28;20165;-29
2023/01/16 14:24:00;;;;;;;20.08;2.20;;;;;;;;;;5097162;28;20040;-29
2023/01/16 14:26:26;;;;;;;17.50;2.50;;;;;;;;;;5097035;28;20024;-29
2023/01/16 14:28:54;;;;;;;22.80;3.97;;;;;;;;;;5097096;28;20036;-29
2023/01/16 14:31:25;;;;;;;13.85;2.70;;;;;;;;;;5078830;28;20031;-28
2023/01/16 14:33:53;;;;;;;17.10;2.63;;;;;;;;;;5096596;28;20035;-29
2023/01/16 14:36:21;;;;;;;13.65;3.70;;;;;;;;;;5097379;28;20084;-29
2023/01/16 14:38:47;;;;;;;12.23;2.08;;;;;;;;;;5096587;28;20038;-29
2023/01/16 14:55:42;;;;;;;25.45;3.35;;;;;;;;;;5096416;28;20109;-28
2023/01/16 14:58:09;;;;;;;25.80;2.88;;;;;;;;;;5095982;28;20076;-29
2023/01/16 15:00:37;;;;;;;23.15;2.72;;;;;;;;;;5096452;28;20050;-28
2023/01/16 15:03:08;;;;;;;23.92;3.30;;;;;;;;;;5090489;28;20052;-28
2023/01/16 15:05:53;;;;;;;29.50;4.28;;;;;;;;;;5075791;28;20082;-28
2023/01/16 15:08:31;;;;;;;12.30;3.50;;;;;;;;;;5075803;28;20031;-28
2023/01/16 15:11:30;;;;;;;12.90;2.25;;;;;;;;;;5076042;28;20409;-28
2023/01/16 15:22:14;;;;;;;14.30;3.17;;;;;;;;;;5075896;28;20441;-28
2023/01/16 15:24:41;;;;;;;11.10;2.00;;;;;;;;;;5075460;28;20032;-28
2023/01/16 15:27:13;;;;;;;12.38;2.42;;;;;;;;;;5075647;28;20459;-28
2023/01/16 15:29:39;;;;;;;12.20;2.42;;;;;;;;;;5075674;28;20094;-28
2023/01/16 15:32:16;;;;;;;15.65;2.53;;;;;;;;;;5075406;28;20032;-28
2023/01/16 15:34:42;;;;;;;14.52;2.20;;;;;;;;;;5075511;28;20335;-28
2023/01/16 15:37:18;;;;;;;18.48;2.72;;;;;;;;;;5075467;28;20020;-28
2023/01/16 15:39:45;;;;;;;17.42;2.33;;;;;;;;;;5075480;28;20025;-28
2023/01/16 15:47:49;;;;;;;15.40;2.75;;;;;;;;;;5074935;28;20098;-28
2023/01/16 15:50:21;;;;;;;20.00;4.38;;;;;;;;;;5074958;28;20116;-28
2023/01/16 15:52:47;;;;;;;23.15;2.83;;;;;;;;;;5074842;28;20451;-28
2023/01/16 15:55:21;;;;;;;13.70;2.80;;;;;;;;;;5075021;28;20406;-28
2023/01/16 15:57:49;;;;;;;13.70;2.55;;;;;;;;;;5075059;28;20025;-28
2023/01/16 16:00:26;;;;;;;22.13;2.78;;;;;;;;;;5057168;28;20032;-28
2023/01/16 16:02:59;;;;;;;17.63;3.92;;;;;;;;;;5074958;28;20040;-28
2023/01/16 16:05:26;;;;;;;18.80;4.82;;;;;;;;;;5074597;28;20113;-28
2023/01/16 16:07:53;;;;;;;29.08;2.90;;;;;;;;;;5074871;28;20038;-28
2023/01/16 16:13:05;;;;;;;20.17;2.80;;;;;;;;;;5074909;28;20054;-28
2023/01/16 16:18:18;;;;;;;16.42;2.72;;;;;;;;;;5074512;28;20051;-28
2023/01/16 16:20:45;;;;;;;12.13;2.20;;;;;;;;;;5074823;28;20032;-28
2023/01/16 16:23:25;;;;;;;9.73;2.33;;;;;;;;;;5074530;28;20024;-28
2023/01/16 16:25:56;;;;;;;15.40;2.22;;;;;;;;;;5074643;28;20074;-28
2023/01/16 16:28:27;;;;;;;21.00;3.13;;;;;;;;;;5056821;28;20110;-28
2023/01/16 16:30:57;;;;;;;19.05;2.50;;;;;;;;;;5074675;28;20036;-28
2023/01/16 16:33:24;;;;;;;7.45;2.53;;;;;;;;;;5057159;28;20036;-28
2023/01/16 16:35:51;;;;;;;10.32;2.30;;;;;;;;;;5074586;28;20047;-28